sensor_id;sensor_type;location;lat;lon;timestamp;temperature;humidity
45066;DHT22;30830;53.704;10.004;2023-02-02T00:01:18;5.10;99.90
45066;DHT22;30830;53.704;10.004;2023-02-02T00:03:44;5.10;99.90
45066;DHT22;30830;53.704;10.004;2023-02-02T00:06:10;5.10;99.90
45066;DHT22;30830;53.704;10.004;2023-02-02T00:08:35;5.10;99.90
45066;DHT22;30830;53.704;10.004;2023-02-02T00:11:02;5.20;99.90
45066;DHT22;30830;53.704;10.004;2023-02-02T00:13:28;5.10;99.90
45066;DHT22;30830;53.704;10.004;2023-02-02T00:15:53;5.20;99.90
45066;DHT22;30830;53.704;10.004;2023-02-02T00:18:19;5.20;99.90
45066;DHT22;30830;53.704;10.004;2023-02-02T00:20:45;5.20;99.90
45066;DHT22;30830;53.704;10.004;2023-02-02T00:23:13;5.20;99.90
45066;DHT22;30830;53.704;10.004;2023-02-02T00:25:39;5.20;99.90
45066;DHT22;30830;53.704;10.004;2023-02-02T00:28:05;5.10;99.90
45066;DHT22;30830;53.704;10.004;2023-02-02T00:30:31;5.10;99.90
45066;DHT22;30830;53.704;10.004;2023-02-02T00:32:56;5.20;99.90
45066;DHT22;30830;53.704;10.004;2023-02-02T00:35:22;5.20;99.90
45066;DHT22;30830;53.704;10.004;2023-02-02T00:37:47;5.20;99.90
45066;DHT22;30830;53.704;10.004;2023-02-02T00:40:13;5.20;99.90
45066;DHT22;30830;53.704;10.004;2023-02-02T00:42:38;5.20;99.90
45066;DHT22;30830;53.704;10.004;2023-02-02T00:45:04;5.20;99.90
45066;DHT22;30830;53.704;10.004;2023-02-02T00:47:47;5.20;99.90
45066;DHT22;30830;53.704;10.004;2023-02-02T00:50:16;5.20;99.90
45066;DHT22;30830;53.704;10.004;2023-02-02T00:52:43;5.20;99.90
45066;DHT22;30830;53.704;10.004;2023-02-02T00:55:10;5.10;99.90
45066;DHT22;30830;53.704;10.004;2023-02-02T00:57:36;5.10;99.90
45066;DHT22;30830;53.704;10.004;2023-02-02T01:00:04;5.10;99.90
45066;DHT22;30830;53.704;10.004;2023-02-02T01:02:31;5.10;99.90
45066;DHT22;30830;53.704;10.004;2023-02-02T01:04:57;5.10;99.90
45066;DHT22;30830;53.704;10.004;2023-02-02T01:07:22;5.10;99.90
45066;DHT22;30830;53.704;10.004;2023-02-02T01:09:48;5.10;99.90
45066;DHT22;30830;53.704;10.004;2023-02-02T01:12:14;5.00;99.90
45066;DHT22;30830;53.704;10.004;2023-02-02T01:14:39;5.00;99.90
45066;DHT22;30830;53.704;10.004;2023-02-02T01:17:05;5.00;99.90
45066;DHT22;30830;53.704;10.004;2023-02-02T01:19:30;4.90;99.90
45066;DHT22;30830;53.704;10.004;2023-02-02T01:21:56;4.90;99.90
45066;DHT22;30830;53.704;10.004;2023-02-02T01:24:21;4.80;99.90
45066;DHT22;30830;53.704;10.004;2023-02-02T01:26:47;4.80;99.90
45066;DHT22;30830;53.704;10.004;2023-02-02T01:29:12;4.80;99.90
45066;DHT22;30830;53.704;10.004;2023-02-02T01:31:40;4.80;99.90
45066;DHT22;30830;53.704;10.004;2023-02-02T01:34:07;4.70;99.90
45066;DHT22;30830;53.704;10.004;2023-02-02T01:36:33;4.70;99.90
45066;DHT22;30830;53.704;10.004;2023-02-02T01:38:58;4.60;99.90
45066;DHT22;30830;53.704;10.004;2023-02-02T01:41:25;4.60;99.90
45066;DHT22;30830;53.704;10.004;2023-02-02T01:46:55;4.50;99.90
45066;DHT22;30830;53.704;10.004;2023-02-02T01:49:20;4.40;99.90
45066;DHT22;30830;53.704;10.004;2023-02-02T01:51:56;4.30;99.90
45066;DHT22;30830;53.704;10.004;2023-02-02T01:54:30;4.30;99.90
45066;DHT22;30830;53.704;10.004;2023-02-02T01:57:00;4.30;99.90
45066;DHT22;30830;53.704;10.004;2023-02-02T01:59:27;4.30;99.90
45066;DHT22;30830;53.704;10.004;2023-02-02T02:01:54;4.30;99.90
45066;DHT22;30830;53.704;10.004;2023-02-02T02:04:21;4.30;99.90
45066;DHT22;30830;53.704;10.004;2023-02-02T02:06:47;4.40;99.90
45066;DHT22;30830;53.704;10.004;2023-02-02T02:09:13;4.40;99.90
45066;DHT22;30830;53.704;10.004;2023-02-02T02:11:38;4.30;99.90
45066;DHT22;30830;53.704;10.004;2023-02-02T02:14:07;4.40;99.90
45066;DHT22;30830;53.704;10.004;2023-02-02T02:17:43;4.40;99.90
45066;DHT22;30830;53.704;10.004;2023-02-02T02:29:40;4.30;99.90
45066;DHT22;30830;53.704;10.004;2023-02-02T02:35:43;4.40;99.90
45066;DHT22;30830;53.704;10.004;2023-02-02T02:40:56;4.30;99.90
45066;DHT22;30830;53.704;10.004;2023-02-02T02:43:26;4.30;99.90
45066;DHT22;30830;53.704;10.004;2023-02-02T02:45:54;4.30;99.90
45066;DHT22;30830;53.704;10.004;2023-02-02T02:48:20;4.30;99.90
45066;DHT22;30830;53.704;10.004;2023-02-02T02:50:45;4.20;99.90
45066;DHT22;30830;53.704;10.004;2023-02-02T02:53:15;4.20;99.90
45066;DHT22;30830;53.704;10.004;2023-02-02T02:56:48;4.20;99.90
45066;DHT22;30830;53.704;10.004;2023-02-02T02:59:01;4.20;99.90
45066;DHT22;30830;53.704;10.004;2023-02-02T03:01:41;4.30;99.90
45066;DHT22;30830;53.704;10.004;2023-02-02T03:06:59;4.30;99.90
45066;DHT22;30830;53.704;10.004;2023-02-02T03:09:29;4.20;99.90
45066;DHT22;30830;53.704;10.004;2023-02-02T03:11:59;4.10;99.90
45066;DHT22;30830;53.704;10.004;2023-02-02T03:14:24;4.00;99.90
45066;DHT22;30830;53.704;10.004;2023-02-02T03:16:51;4.00;99.90
45066;DHT22;30830;53.704;10.004;2023-02-02T03:19:17;3.90;99.90
45066;DHT22;30830;53.704;10.004;2023-02-02T03:21:42;3.80;99.90
45066;DHT22;30830;53.704;10.004;2023-02-02T03:24:09;3.80;99.90
45066;DHT22;30830;53.704;10.004;2023-02-02T03:26:34;3.80;99.90
45066;DHT22;30830;53.704;10.004;2023-02-02T03:29:00;3.80;99.90
45066;DHT22;30830;53.704;10.004;2023-02-02T03:31:27;3.80;99.90
45066;DHT22;30830;53.704;10.004;2023-02-02T03:33:54;3.80;99.90
45066;DHT22;30830;53.704;10.004;2023-02-02T03:36:19;3.80;99.90
45066;DHT22;30830;53.704;10.004;2023-02-02T03:38:45;3.90;99.90
45066;DHT22;30830;53.704;10.004;2023-02-02T03:41:10;3.90;99.90
45066;DHT22;30830;53.704;10.004;2023-02-02T03:43:36;3.90;99.90
45066;DHT22;30830;53.704;10.004;2023-02-02T03:46:03;3.90;99.90
45066;DHT22;30830;53.704;10.004;2023-02-02T03:48:29;3.90;99.90
45066;DHT22;30830;53.704;10.004;2023-02-02T03:50:55;3.90;99.90
45066;DHT22;30830;53.704;10.004;2023-02-02T03:53:22;4.00;99.90
45066;DHT22;30830;53.704;10.004;2023-02-02T03:55:48;4.00;99.90
45066;DHT22;30830;53.704;10.004;2023-02-02T03:58:13;4.00;99.90
45066;DHT22;30830;53.704;10.004;2023-02-02T04:00:39;4.00;99.90
45066;DHT22;30830;53.704;10.004;2023-02-02T04:03:05;4.00;99.90
45066;DHT22;30830;53.704;10.004;2023-02-02T04:05:30;4.00;99.90
45066;DHT22;30830;53.704;10.004;2023-02-02T04:07:56;4.10;99.90
45066;DHT22;30830;53.704;10.004;2023-02-02T04:10:21;4.10;99.90
45066;DHT22;30830;53.704;10.004;2023-02-02T04:12:47;4.10;99.90
45066;DHT22;30830;53.704;10.004;2023-02-02T04:15:13;4.10;99.90
45066;DHT22;30830;53.704;10.004;2023-02-02T04:17:38;4.10;99.90
45066;DHT22;30830;53.704;10.004;2023-02-02T04:20:04;4.10;99.90
45066;DHT22;30830;53.704;10.004;2023-02-02T04:22:30;4.10;99.90
45066;DHT22;30830;53.704;10.004;2023-02-02T04:24:56;4.20;99.90
45066;DHT22;30830;53.704;10.004;2023-02-02T04:27:22;4.10;99.90
45066;DHT22;30830;53.704;10.004;2023-02-02T04:29:47;4.10;99.90
45066;DHT22;30830;53.704;10.004;2023-02-02T04:32:15;4.10;99.90
45066;DHT22;30830;53.704;10.004;2023-02-02T04:34:41;4.10;99.90
45066;DHT22;30830;53.704;10.004;2023-02-02T04:37:07;4.10;99.90
45066;DHT22;30830;53.704;10.004;2023-02-02T04:39:32;4.10;99.90
45066;DHT22;30830;53.704;10.004;2023-02-02T04:41:58;4.10;99.90
45066;DHT22;30830;53.704;10.004;2023-02-02T04:44:23;4.10;99.90
45066;DHT22;30830;53.704;10.004;2023-02-02T04:46:50;4.10;99.90
45066;DHT22;30830;53.704;10.004;2023-02-02T04:49:16;4.10;99.90
45066;DHT22;30830;53.704;10.004;2023-02-02T04:51:41;4.10;99.90
45066;DHT22;30830;53.704;10.004;2023-02-02T04:54:07;4.10;99.90
45066;DHT22;30830;53.704;10.004;2023-02-02T04:56:33;4.10;99.90
45066;DHT22;30830;53.704;10.004;2023-02-02T04:58:59;4.10;99.90
45066;DHT22;30830;53.704;10.004;2023-02-02T05:01:25;4.10;99.90
45066;DHT22;30830;53.704;10.004;2023-02-02T05:03:50;4.10;99.90
45066;DHT22;30830;53.704;10.004;2023-02-02T05:06:17;4.10;99.90
45066;DHT22;30830;53.704;10.004;2023-02-02T05:08:44;4.10;99.90
45066;DHT22;30830;53.704;10.004;2023-02-02T05:11:15;4.00;99.90
45066;DHT22;30830;53.704;10.004;2023-02-02T05:13:48;4.00;99.90
45066;DHT22;30830;53.704;10.004;2023-02-02T05:16:14;4.00;99.90
45066;DHT22;30830;53.704;10.004;2023-02-02T05:18:41;4.10;99.90
45066;DHT22;30830;53.704;10.004;2023-02-02T05:21:07;4.10;99.90
45066;DHT22;30830;53.704;10.004;2023-02-02T05:23:32;4.10;99.90
45066;DHT22;30830;53.704;10.004;2023-02-02T05:25:58;4.10;99.90
45066;DHT22;30830;53.704;10.004;2023-02-02T05:28:24;4.00;99.90
45066;DHT22;30830;53.704;10.004;2023-02-02T05:30:49;4.00;99.90
45066;DHT22;30830;53.704;10.004;2023-02-02T05:33:16;4.00;99.90
45066;DHT22;30830;53.704;10.004;2023-02-02T05:35:48;4.10;99.90
45066;DHT22;30830;53.704;10.004;2023-02-02T05:38:13;4.10;99.90
45066;DHT22;30830;53.704;10.004;2023-02-02T05:40:39;4.10;99.90
45066;DHT22;30830;53.704;10.004;2023-02-02T05:43:05;4.00;99.90
45066;DHT22;30830;53.704;10.004;2023-02-02T05:45:30;4.10;99.90
45066;DHT22;30830;53.704;10.004;2023-02-02T05:47:57;4.10;99.90
45066;DHT22;30830;53.704;10.004;2023-02-02T05:50:23;4.10;99.90
45066;DHT22;30830;53.704;10.004;2023-02-02T05:52:49;4.10;99.90
45066;DHT22;30830;53.704;10.004;2023-02-02T05:55:15;4.10;99.90
45066;DHT22;30830;53.704;10.004;2023-02-02T05:57:42;4.10;99.90
45066;DHT22;30830;53.704;10.004;2023-02-02T06:00:09;4.10;99.90
45066;DHT22;30830;53.704;10.004;2023-02-02T06:02:35;4.10;99.90
45066;DHT22;30830;53.704;10.004;2023-02-02T06:05:01;4.00;99.90
45066;DHT22;30830;53.704;10.004;2023-02-02T06:07:26;4.00;99.90
45066;DHT22;30830;53.704;10.004;2023-02-02T06:09:52;4.00;99.90
45066;DHT22;30830;53.704;10.004;2023-02-02T06:12:17;4.00;99.90
45066;DHT22;30830;53.704;10.004;2023-02-02T06:14:44;4.00;99.90
45066;DHT22;30830;53.704;10.004;2023-02-02T06:17:09;4.00;99.90
45066;DHT22;30830;53.704;10.004;2023-02-02T06:19:35;4.00;99.90
45066;DHT22;30830;53.704;10.004;2023-02-02T06:22:01;3.90;99.90
45066;DHT22;30830;53.704;10.004;2023-02-02T06:24:26;3.90;99.90
45066;DHT22;30830;53.704;10.004;2023-02-02T06:26:52;4.00;99.90
45066;DHT22;30830;53.704;10.004;2023-02-02T06:29:18;4.00;99.90
45066;DHT22;30830;53.704;10.004;2023-02-02T06:31:43;4.00;99.90
45066;DHT22;30830;53.704;10.004;2023-02-02T06:34:10;4.00;99.90
45066;DHT22;30830;53.704;10.004;2023-02-02T06:36:39;4.00;99.90
45066;DHT22;30830;53.704;10.004;2023-02-02T06:39:05;4.00;99.90
45066;DHT22;30830;53.704;10.004;2023-02-02T06:41:35;4.10;99.90
45066;DHT22;30830;53.704;10.004;2023-02-02T06:44:01;4.10;99.90
45066;DHT22;30830;53.704;10.004;2023-02-02T06:46:27;4.10;99.90
45066;DHT22;30830;53.704;10.004;2023-02-02T06:48:52;4.10;99.90
45066;DHT22;30830;53.704;10.004;2023-02-02T06:51:18;4.10;99.90
45066;DHT22;30830;53.704;10.004;2023-02-02T06:53:46;4.10;99.90
45066;DHT22;30830;53.704;10.004;2023-02-02T06:56:13;4.00;99.90
45066;DHT22;30830;53.704;10.004;2023-02-02T06:58:39;4.00;99.90
45066;DHT22;30830;53.704;10.004;2023-02-02T07:01:10;4.10;99.90
45066;DHT22;30830;53.704;10.004;2023-02-02T07:03:36;4.00;99.90
45066;DHT22;30830;53.704;10.004;2023-02-02T07:06:23;4.00;99.90
45066;DHT22;30830;53.704;10.004;2023-02-02T07:08:50;3.90;99.90
45066;DHT22;30830;53.704;10.004;2023-02-02T07:11:17;3.90;99.90
45066;DHT22;30830;53.704;10.004;2023-02-02T07:13:44;3.90;99.90
45066;DHT22;30830;53.704;10.004;2023-02-02T07:16:10;3.80;99.90
45066;DHT22;30830;53.704;10.004;2023-02-02T07:18:37;3.90;99.90
45066;DHT22;30830;53.704;10.004;2023-02-02T07:21:02;3.90;99.90
45066;DHT22;30830;53.704;10.004;2023-02-02T07:23:28;3.90;99.90
45066;DHT22;30830;53.704;10.004;2023-02-02T07:28:27;3.80;99.90
45066;DHT22;30830;53.704;10.004;2023-02-02T07:30:53;3.80;99.90
45066;DHT22;30830;53.704;10.004;2023-02-02T07:33:18;3.80;99.90
45066;DHT22;30830;53.704;10.004;2023-02-02T07:35:44;3.80;99.90
45066;DHT22;30830;53.704;10.004;2023-02-02T07:38:09;3.80;99.90
45066;DHT22;30830;53.704;10.004;2023-02-02T07:40:35;3.80;99.90
45066;DHT22;30830;53.704;10.004;2023-02-02T07:43:00;3.80;99.90
45066;DHT22;30830;53.704;10.004;2023-02-02T07:45:27;3.80;99.90
45066;DHT22;30830;53.704;10.004;2023-02-02T07:47:59;3.80;99.90
45066;DHT22;30830;53.704;10.004;2023-02-02T07:50:26;3.90;99.90
45066;DHT22;30830;53.704;10.004;2023-02-02T07:52:52;3.90;99.90
45066;DHT22;30830;53.704;10.004;2023-02-02T07:55:18;4.00;99.90
45066;DHT22;30830;53.704;10.004;2023-02-02T07:57:44;4.00;99.90
45066;DHT22;30830;53.704;10.004;2023-02-02T08:00:10;4.00;99.90
45066;DHT22;30830;53.704;10.004;2023-02-02T08:02:36;4.00;99.90
45066;DHT22;30830;53.704;10.004;2023-02-02T08:05:02;4.10;99.90
45066;DHT22;30830;53.704;10.004;2023-02-02T08:07:27;4.10;99.90
45066;DHT22;30830;53.704;10.004;2023-02-02T08:09:53;4.10;99.90
45066;DHT22;30830;53.704;10.004;2023-02-02T08:12:19;4.10;99.90
45066;DHT22;30830;53.704;10.004;2023-02-02T08:14:47;4.10;99.90
45066;DHT22;30830;53.704;10.004;2023-02-02T08:17:13;4.10;99.90
45066;DHT22;30830;53.704;10.004;2023-02-02T08:19:39;4.10;99.90
45066;DHT22;30830;53.704;10.004;2023-02-02T08:22:05;4.20;99.90
45066;DHT22;30830;53.704;10.004;2023-02-02T08:24:30;4.10;99.90
45066;DHT22;30830;53.704;10.004;2023-02-02T08:26:56;4.10;99.90
45066;DHT22;30830;53.704;10.004;2023-02-02T08:29:21;4.10;99.90
45066;DHT22;30830;53.704;10.004;2023-02-02T08:31:47;4.10;99.90
45066;DHT22;30830;53.704;10.004;2023-02-02T08:34:12;4.10;99.90
45066;DHT22;30830;53.704;10.004;2023-02-02T08:36:38;4.10;99.90
45066;DHT22;30830;53.704;10.004;2023-02-02T08:39:06;4.20;99.90
45066;DHT22;30830;53.704;10.004;2023-02-02T08:41:32;4.20;99.90
45066;DHT22;30830;53.704;10.004;2023-02-02T08:43:58;4.20;99.90
45066;DHT22;30830;53.704;10.004;2023-02-02T08:46:24;4.20;99.90
45066;DHT22;30830;53.704;10.004;2023-02-02T08:48:49;4.30;99.90
45066;DHT22;30830;53.704;10.004;2023-02-02T08:51:17;4.30;99.90
45066;DHT22;30830;53.704;10.004;2023-02-02T08:53:43;4.30;99.90
45066;DHT22;30830;53.704;10.004;2023-02-02T08:56:12;4.40;99.90
45066;DHT22;30830;53.704;10.004;2023-02-02T08:58:39;4.40;99.90
45066;DHT22;30830;53.704;10.004;2023-02-02T09:01:14;4.50;99.90
45066;DHT22;30830;53.704;10.004;2023-02-02T09:03:40;4.60;99.90
45066;DHT22;30830;53.704;10.004;2023-02-02T09:06:11;4.80;99.90
45066;DHT22;30830;53.704;10.004;2023-02-02T09:08:37;4.80;99.90
45066;DHT22;30830;53.704;10.004;2023-02-02T09:11:08;4.90;99.90
45066;DHT22;30830;53.704;10.004;2023-02-02T09:13:35;4.90;99.90
45066;DHT22;30830;53.704;10.004;2023-02-02T09:16:02;5.00;99.90
45066;DHT22;30830;53.704;10.004;2023-02-02T09:18:28;5.10;99.90
45066;DHT22;30830;53.704;10.004;2023-02-02T09:20:54;5.10;99.90
45066;DHT22;30830;53.704;10.004;2023-02-02T09:23:19;5.10;99.90
45066;DHT22;30830;53.704;10.004;2023-02-02T09:25:45;5.20;99.90
45066;DHT22;30830;53.704;10.004;2023-02-02T09:28:11;5.30;99.90
45066;DHT22;30830;53.704;10.004;2023-02-02T09:30:37;5.30;99.90
45066;DHT22;30830;53.704;10.004;2023-02-02T09:33:03;5.40;99.90
45066;DHT22;30830;53.704;10.004;2023-02-02T09:35:28;5.40;99.90
45066;DHT22;30830;53.704;10.004;2023-02-02T09:37:54;5.50;99.90
45066;DHT22;30830;53.704;10.004;2023-02-02T09:40:20;5.50;99.90
45066;DHT22;30830;53.704;10.004;2023-02-02T09:48:19;5.60;99.90
45066;DHT22;30830;53.704;10.004;2023-02-02T09:51:03;5.70;99.90
45066;DHT22;30830;53.704;10.004;2023-02-02T09:55:58;5.80;99.90
45066;DHT22;30830;53.704;10.004;2023-02-02T09:58:31;5.90;99.90
45066;DHT22;30830;53.704;10.004;2023-02-02T10:01:24;6.00;99.90
45066;DHT22;30830;53.704;10.004;2023-02-02T10:06:43;6.10;99.90
45066;DHT22;30830;53.704;10.004;2023-02-02T10:10:10;6.20;99.90
45066;DHT22;30830;53.704;10.004;2023-02-02T10:12:38;6.30;99.90
45066;DHT22;30830;53.704;10.004;2023-02-02T10:20:58;6.30;99.90
45066;DHT22;30830;53.704;10.004;2023-02-02T10:23:40;6.20;99.90
45066;DHT22;30830;53.704;10.004;2023-02-02T10:26:25;6.30;99.90
45066;DHT22;30830;53.704;10.004;2023-02-02T10:29:05;6.30;99.90
45066;DHT22;30830;53.704;10.004;2023-02-02T10:31:49;6.30;99.90
45066;DHT22;30830;53.704;10.004;2023-02-02T10:34:32;6.30;99.90
45066;DHT22;30830;53.704;10.004;2023-02-02T10:40:14;6.40;99.90
45066;DHT22;30830;53.704;10.004;2023-02-02T10:45:49;6.50;99.90
45066;DHT22;30830;53.704;10.004;2023-02-02T10:48:21;6.40;99.90
45066;DHT22;30830;53.704;10.004;2023-02-02T10:50:51;6.40;99.90
45066;DHT22;30830;53.704;10.004;2023-02-02T10:53:17;6.30;99.90
45066;DHT22;30830;53.704;10.004;2023-02-02T11:03:14;6.20;99.90
45066;DHT22;30830;53.704;10.004;2023-02-02T11:05:40;6.20;99.90
45066;DHT22;30830;53.704;10.004;2023-02-02T11:13:52;6.40;99.90
45066;DHT22;30830;53.704;10.004;2023-02-02T11:16:21;6.40;99.90
45066;DHT22;30830;53.704;10.004;2023-02-02T11:18:47;6.40;99.90
45066;DHT22;30830;53.704;10.004;2023-02-02T11:21:29;6.40;99.90
45066;DHT22;30830;53.704;10.004;2023-02-02T11:26:42;6.40;99.90
45066;DHT22;30830;53.704;10.004;2023-02-02T11:29:14;6.50;99.90
45066;DHT22;30830;53.704;10.004;2023-02-02T11:31:40;6.50;99.90
45066;DHT22;30830;53.704;10.004;2023-02-02T11:34:21;6.60;99.90
45066;DHT22;30830;53.704;10.004;2023-02-02T11:37:14;6.70;99.90
45066;DHT22;30830;53.704;10.004;2023-02-02T11:39:44;6.70;99.90
45066;DHT22;30830;53.704;10.004;2023-02-02T11:42:16;6.70;99.90
45066;DHT22;30830;53.704;10.004;2023-02-02T11:44:46;6.70;99.90
45066;DHT22;30830;53.704;10.004;2023-02-02T11:47:30;6.70;99.90
45066;DHT22;30830;53.704;10.004;2023-02-02T11:49:59;6.70;99.90
45066;DHT22;30830;53.704;10.004;2023-02-02T11:52:27;6.80;99.90
45066;DHT22;30830;53.704;10.004;2023-02-02T11:54:59;6.90;99.90
45066;DHT22;30830;53.704;10.004;2023-02-02T11:57:27;7.00;99.90
45066;DHT22;30830;53.704;10.004;2023-02-02T12:00:25;7.10;99.90
45066;DHT22;30830;53.704;10.004;2023-02-02T12:02:52;7.00;99.90
45066;DHT22;30830;53.704;10.004;2023-02-02T12:07:44;7.00;99.90
45066;DHT22;30830;53.704;10.004;2023-02-02T12:22:07;6.80;99.90
45066;DHT22;30830;53.704;10.004;2023-02-02T12:24:37;6.70;99.90
45066;DHT22;30830;53.704;10.004;2023-02-02T12:32:27;6.60;99.90
45066;DHT22;30830;53.704;10.004;2023-02-02T12:35:36;6.60;99.90
45066;DHT22;30830;53.704;10.004;2023-02-02T12:44:06;6.40;99.90
45066;DHT22;30830;53.704;10.004;2023-02-02T12:49:24;6.40;99.90
45066;DHT22;30830;53.704;10.004;2023-02-02T12:52:20;6.50;99.90
45066;DHT22;30830;53.704;10.004;2023-02-02T12:55:06;6.50;99.90
45066;DHT22;30830;53.704;10.004;2023-02-02T12:57:48;6.70;99.90
45066;DHT22;30830;53.704;10.004;2023-02-02T13:03:20;6.90;99.90
45066;DHT22;30830;53.704;10.004;2023-02-02T13:11:10;7.00;99.90
45066;DHT22;30830;53.704;10.004;2023-02-02T13:13:57;7.00;99.90
45066;DHT22;30830;53.704;10.004;2023-02-02T13:16:25;7.00;99.90
45066;DHT22;30830;53.704;10.004;2023-02-02T13:19:19;7.00;99.90
45066;DHT22;30830;53.704;10.004;2023-02-02T13:21:41;6.90;99.90
45066;DHT22;30830;53.704;10.004;2023-02-02T13:24:11;6.80;99.90
45066;DHT22;30830;53.704;10.004;2023-02-02T13:26:42;6.70;99.90
45066;DHT22;30830;53.704;10.004;2023-02-02T13:34:22;6.50;99.90
45066;DHT22;30830;53.704;10.004;2023-02-02T13:39:41;6.40;99.90
45066;DHT22;30830;53.704;10.004;2023-02-02T13:42:20;6.30;99.90
45066;DHT22;30830;53.704;10.004;2023-02-02T13:44:54;6.30;99.90
45066;DHT22;30830;53.704;10.004;2023-02-02T13:47:29;6.30;99.90
45066;DHT22;30830;53.704;10.004;2023-02-02T13:50:03;6.20;99.90
45066;DHT22;30830;53.704;10.004;2023-02-02T13:52:43;6.20;99.90
45066;DHT22;30830;53.704;10.004;2023-02-02T14:00:33;6.20;99.90
45066;DHT22;30830;53.704;10.004;2023-02-02T14:03:06;6.20;99.90
45066;DHT22;30830;53.704;10.004;2023-02-02T14:08:30;6.30;99.90
45066;DHT22;30830;53.704;10.004;2023-02-02T14:10:58;6.40;99.90
45066;DHT22;30830;53.704;10.004;2023-02-02T14:13:40;6.40;99.90
45066;DHT22;30830;53.704;10.004;2023-02-02T14:19:02;6.40;99.90
45066;DHT22;30830;53.704;10.004;2023-02-02T14:26:59;6.40;99.90
45066;DHT22;30830;53.704;10.004;2023-02-02T14:32:01;6.40;99.90
45066;DHT22;30830;53.704;10.004;2023-02-02T14:34:31;6.30;99.90
45066;DHT22;30830;53.704;10.004;2023-02-02T14:39:29;6.30;99.90
45066;DHT22;30830;53.704;10.004;2023-02-02T14:42:29;6.20;99.90
45066;DHT22;30830;53.704;10.004;2023-02-02T14:45:26;6.20;99.90
45066;DHT22;30830;53.704;10.004;2023-02-02T14:51:12;6.20;99.90
45066;DHT22;30830;53.704;10.004;2023-02-02T14:53:39;6.10;99.90
45066;DHT22;30830;53.704;10.004;2023-02-02T14:56:13;6.10;99.90
45066;DHT22;30830;53.704;10.004;2023-02-02T15:03:54;6.10;99.90
45066;DHT22;30830;53.704;10.004;2023-02-02T15:06:38;6.00;99.90
45066;DHT22;30830;53.704;10.004;2023-02-02T15:23:15;5.80;99.90
45066;DHT22;30830;53.704;10.004;2023-02-02T15:26:00;5.80;99.90
45066;DHT22;30830;53.704;10.004;2023-02-02T15:28:41;5.70;99.90
45066;DHT22;30830;53.704;10.004;2023-02-02T15:33:44;5.60;99.90
45066;DHT22;30830;53.704;10.004;2023-02-02T15:36:21;5.60;99.90
45066;DHT22;30830;53.704;10.004;2023-02-02T15:38:51;5.50;99.90
45066;DHT22;30830;53.704;10.004;2023-02-02T15:41:40;5.50;99.90
45066;DHT22;30830;53.704;10.004;2023-02-02T15:44:32;5.40;99.90
45066;DHT22;30830;53.704;10.004;2023-02-02T15:47:00;5.40;99.90
45066;DHT22;30830;53.704;10.004;2023-02-02T15:49:32;5.30;99.90
45066;DHT22;30830;53.704;10.004;2023-02-02T15:52:02;5.20;99.90
45066;DHT22;30830;53.704;10.004;2023-02-02T15:54:35;5.20;99.90
45066;DHT22;30830;53.704;10.004;2023-02-02T15:57:02;5.10;99.90
45066;DHT22;30830;53.704;10.004;2023-02-02T15:59:37;5.10;99.90
45066;DHT22;30830;53.704;10.004;2023-02-02T16:04:42;5.00;99.90
45066;DHT22;30830;53.704;10.004;2023-02-02T16:07:13;4.90;99.90
45066;DHT22;30830;53.704;10.004;2023-02-02T16:09:39;4.80;99.90
45066;DHT22;30830;53.704;10.004;2023-02-02T16:12:16;4.80;99.90
45066;DHT22;30830;53.704;10.004;2023-02-02T16:14:47;4.70;99.90
45066;DHT22;30830;53.704;10.004;2023-02-02T16:17:24;4.70;99.90
45066;DHT22;30830;53.704;10.004;2023-02-02T16:19:57;4.60;99.90
45066;DHT22;30830;53.704;10.004;2023-02-02T16:22:24;4.60;99.90
45066;DHT22;30830;53.704;10.004;2023-02-02T16:24:52;4.50;99.90
45066;DHT22;30830;53.704;10.004;2023-02-02T16:27:24;4.50;99.90
45066;DHT22;30830;53.704;10.004;2023-02-02T16:29:50;4.40;99.90
45066;DHT22;30830;53.704;10.004;2023-02-02T16:32:36;4.40;99.90
45066;DHT22;30830;53.704;10.004;2023-02-02T16:35:22;4.40;99.90
45066;DHT22;30830;53.704;10.004;2023-02-02T16:37:51;4.30;99.90
45066;DHT22;30830;53.704;10.004;2023-02-02T16:40:29;4.30;99.90
45066;DHT22;30830;53.704;10.004;2023-02-02T16:46:05;4.20;99.90
45066;DHT22;30830;53.704;10.004;2023-02-02T16:48:34;4.10;99.90
45066;DHT22;30830;53.704;10.004;2023-02-02T16:56:34;4.00;99.90
45066;DHT22;30830;53.704;10.004;2023-02-02T16:59:06;4.00;99.90
45066;DHT22;30830;53.704;10.004;2023-02-02T17:01:41;3.90;99.90
45066;DHT22;30830;53.704;10.004;2023-02-02T17:04:18;3.90;99.90
45066;DHT22;30830;53.704;10.004;2023-02-02T17:06:46;3.80;99.90
45066;DHT22;30830;53.704;10.004;2023-02-02T17:09:25;3.80;99.90
45066;DHT22;30830;53.704;10.004;2023-02-02T17:14:52;3.70;99.90
45066;DHT22;30830;53.704;10.004;2023-02-02T17:17:19;3.60;99.90
45066;DHT22;30830;53.704;10.004;2023-02-02T17:19:44;3.60;99.90
45066;DHT22;30830;53.704;10.004;2023-02-02T17:22:12;3.50;99.90
45066;DHT22;30830;53.704;10.004;2023-02-02T17:24:41;3.50;99.90
45066;DHT22;30830;53.704;10.004;2023-02-02T17:27:31;3.50;99.90
45066;DHT22;30830;53.704;10.004;2023-02-02T17:30:00;3.40;99.90
45066;DHT22;30830;53.704;10.004;2023-02-02T17:32:25;3.40;99.90
45066;DHT22;30830;53.704;10.004;2023-02-02T17:34:51;3.30;99.90
45066;DHT22;30830;53.704;10.004;2023-02-02T17:37:17;3.30;99.90
45066;DHT22;30830;53.704;10.004;2023-02-02T17:39:42;3.30;99.90
45066;DHT22;30830;53.704;10.004;2023-02-02T17:42:24;3.20;99.90
45066;DHT22;30830;53.704;10.004;2023-02-02T17:44:50;3.20;99.90
45066;DHT22;30830;53.704;10.004;2023-02-02T17:47:16;3.20;99.90
45066;DHT22;30830;53.704;10.004;2023-02-02T17:49:41;3.20;99.90
45066;DHT22;30830;53.704;10.004;2023-02-02T17:52:09;3.10;99.90
45066;DHT22;30830;53.704;10.004;2023-02-02T17:54:34;3.10;99.90
45066;DHT22;30830;53.704;10.004;2023-02-02T17:57:00;3.10;99.90
45066;DHT22;30830;53.704;10.004;2023-02-02T17:59:25;3.10;99.90
45066;DHT22;30830;53.704;10.004;2023-02-02T18:01:51;3.10;99.90
45066;DHT22;30830;53.704;10.004;2023-02-02T18:04:20;3.10;99.90
45066;DHT22;30830;53.704;10.004;2023-02-02T18:06:53;3.10;99.90
45066;DHT22;30830;53.704;10.004;2023-02-02T18:09:18;3.10;99.90
45066;DHT22;30830;53.704;10.004;2023-02-02T18:11:44;3.10;99.90
45066;DHT22;30830;53.704;10.004;2023-02-02T18:14:10;3.10;99.90
45066;DHT22;30830;53.704;10.004;2023-02-02T18:16:35;3.10;99.90
45066;DHT22;30830;53.704;10.004;2023-02-02T18:19:01;3.10;99.90
45066;DHT22;30830;53.704;10.004;2023-02-02T18:21:27;3.10;99.90
45066;DHT22;30830;53.704;10.004;2023-02-02T18:23:54;3.10;99.90
45066;DHT22;30830;53.704;10.004;2023-02-02T18:26:20;3.10;99.90
45066;DHT22;30830;53.704;10.004;2023-02-02T18:28:47;3.10;99.90
45066;DHT22;30830;53.704;10.004;2023-02-02T18:31:16;3.10;99.90
45066;DHT22;30830;53.704;10.004;2023-02-02T18:33:44;3.10;99.90